Time;durP1;ratioP1;P1;durP2;ratioP2;P2;SDS_P1;SDS_P2;PMS_P1;PMS_P2;Temp;Humidity;BMP_temperature;BMP_pressure;BME280_temperature;BME280_humidity;BME280_pressure;Samples;Min_cycle;Max_cycle;Signal;HPM_P1;HPM_P2
2021/07/17 00:02:08;;;;;;;1.52;1.08;;;19.70;78.30;;;;;;5119429;28;20024;-70
2021/07/17 00:04:34;;;;;;;3.17;0.90;;;19.70;77.70;;;;;;5119350;28;20062;-70
2021/07/17 00:07:00;;;;;;;1.95;0.90;;;19.70;77.70;;;;;;5119015;28;20019;-70
2021/07/17 00:09:25;;;;;;;1.83;1.10;;;19.70;77.00;;;;;;5119266;28;20020;-70
2021/07/17 00:11:51;;;;;;;1.27;0.90;;;19.70;76.40;;;;;;5119266;28;20098;-70
2021/07/17 00:14:17;;;;;;;1.45;0.98;;;19.70;76.60;;;;;;5119303;28;20435;-70
2021/07/17 00:16:43;;;;;;;3.53;0.90;;;19.70;78.90;;;;;;5119057;28;20407;-71
2021/07/17 00:19:09;;;;;;;1.85;0.80;;;19.60;77.80;;;;;;5119055;28;20027;-70
2021/07/17 00:21:35;;;;;;;4.13;0.90;;;19.60;77.30;;;;;;5118726;28;20016;-70
2021/07/17 00:24:01;;;;;;;2.75;1.13;;;19.70;77.70;;;;;;5118945;28;20144;-70
2021/07/17 00:26:27;;;;;;;1.88;1.30;;;19.70;78.10;;;;;;5118904;28;20027;-70
2021/07/17 00:28:52;;;;;;;1.30;0.90;;;19.70;77.60;;;;;;5118899;28;20024;-70
2021/07/17 00:31:18;;;;;;;1.23;0.93;;;19.80;76.20;;;;;;5118889;28;20055;-70
2021/07/17 00:33:44;;;;;;;1.42;0.90;;;19.90;74.60;;;;;;5118798;28;20031;-70
2021/07/17 00:36:10;;;;;;;1.58;0.98;;;20.00;73.60;;;;;;5118695;28;20419;-70
2021/07/17 00:38:36;;;;;;;1.40;0.90;;;20.30;72.30;;;;;;5118347;28;20047;-70
2021/07/17 00:41:03;;;;;;;1.27;0.93;;;20.40;72.80;;;;;;5118580;28;20044;-70
2021/07/17 00:43:28;;;;;;;1.80;0.77;;;20.50;71.90;;;;;;5118479;28;20019;-70
2021/07/17 00:45:54;;;;;;;4.53;0.77;;;20.60;70.80;;;;;;5118587;28;20089;-70
2021/07/17 00:48:23;;;;;;;3.67;0.80;;;20.80;70.40;;;;;;5118250;28;20023;-70
2021/07/17 00:50:49;;;;;;;1.23;0.77;;;21.00;67.80;;;;;;5118484;28;20038;-70
2021/07/17 00:53:15;;;;;;;1.73;0.75;;;21.20;66.60;;;;;;5118462;28;20312;-70
2021/07/17 00:55:46;;;;;;;3.28;0.65;;;21.20;68.90;;;;;;5117941;28;20027;-70
2021/07/17 00:58:13;;;;;;;1.13;0.60;;;21.30;67.60;;;;;;5118417;28;20027;-70
2021/07/17 01:00:39;;;;;;;1.08;0.80;;;21.30;67.60;;;;;;5118297;28;20080;-70
2021/07/17 01:03:07;;;;;;;1.77;0.80;;;21.30;67.00;;;;;;5117932;28;20026;-71
2021/07/17 01:05:34;;;;;;;1.60;0.85;;;21.30;68.30;;;;;;5117892;28;20419;-70
2021/07/17 01:07:59;;;;;;;3.33;1.10;;;21.30;68.00;;;;;;5117852;28;20328;-70
2021/07/17 01:10:26;;;;;;;2.63;0.93;;;21.10;72.00;;;;;;5117302;28;20035;-70
2021/07/17 01:12:52;;;;;;;2.70;1.02;;;21.00;68.90;;;;;;5118066;28;20028;-70
2021/07/17 01:15:18;;;;;;;3.45;0.60;;;20.90;70.10;;;;;;5117946;28;20369;-70
2021/07/17 01:17:45;;;;;;;1.65;1.00;;;20.80;69.00;;;;;;5118026;28;20054;-70
2021/07/17 01:20:21;;;;;;;0.90;0.60;;;20.80;66.70;;;;;;5117918;28;20026;-70
2021/07/17 01:22:48;;;;;;;;;;;21.00;66.30;;;;;;5118378;28;20045;-70
2021/07/17 01:25:25;;;;;;;1.20;0.73;;;21.30;65.30;;;;;;5117856;28;19911;-70
2021/07/17 01:27:52;;;;;;;1.20;0.60;;;21.40;64.40;;;;;;5099514;28;20106;-70
2021/07/17 01:30:22;;;;;;;1.00;0.70;;;21.60;65.00;;;;;;5117752;28;20047;-70
2021/07/17 01:32:48;;;;;;;4.93;0.80;;;21.60;66.00;;;;;;5117733;28;20028;-70
2021/07/17 01:35:14;;;;;;;1.45;0.70;;;21.50;68.70;;;;;;5117594;28;20027;-70
2021/07/17 01:37:40;;;;;;;1.70;0.70;;;21.30;68.30;;;;;;5117137;28;20022;-71
2021/07/17 01:40:10;;;;;;;1.67;0.85;;;21.10;68.00;;;;;;5117656;28;20024;-70
2021/07/17 01:42:35;;;;;;;0.90;0.70;;;21.00;68.80;;;;;;5117226;28;20024;-70
2021/07/17 01:45:03;;;;;;;2.00;0.90;;;20.90;70.60;;;;;;5117274;28;20143;-70
2021/07/17 01:47:28;;;;;;;2.78;0.90;;;20.80;69.40;;;;;;5117504;28;20074;-70
2021/07/17 01:49:54;;;;;;;1.25;0.88;;;20.80;67.40;;;;;;5117219;28;20439;-70
2021/07/17 01:52:20;;;;;;;4.13;0.73;;;20.90;65.90;;;;;;5117447;28;20103;-70
2021/07/17 01:54:45;;;;;;;1.90;0.80;;;21.40;62.10;;;;;;5117400;28;20028;-70
2021/07/17 01:57:11;;;;;;;1.15;0.68;;;21.90;61.60;;;;;;5117418;28;20173;-70
2021/07/17 01:59:40;;;;;;;0.63;0.55;;;22.20;59.80;;;;;;5117410;28;20412;-70
2021/07/17 02:02:08;;;;;;;1.63;0.80;;;22.50;58.90;;;;;;5117410;28;20035;-70
2021/07/17 02:04:35;;;;;;;2.65;0.77;;;22.70;58.10;;;;;;5117070;28;20027;-70
2021/07/17 02:07:02;;;;;;;1.50;0.60;;;22.90;57.30;;;;;;5117063;28;20047;-70
2021/07/17 02:09:27;;;;;;;1.23;0.60;;;23.00;56.90;;;;;;5117003;28;20450;-70
2021/07/17 02:11:53;;;;;;;1.00;0.80;;;23.10;56.70;;;;;;5117300;28;20028;-70
2021/07/17 02:14:19;;;;;;;1.42;0.70;;;23.20;56.20;;;;;;5116877;28;20028;-70
2021/07/17 02:16:45;;;;;;;2.22;0.80;;;23.30;55.60;;;;;;5117170;28;20042;-70
2021/07/17 02:19:22;;;;;;;1.88;0.68;;;23.20;55.70;;;;;;5117244;28;20016;-70
2021/07/17 02:21:50;;;;;;;4.60;0.70;;;23.20;55.80;;;;;;5120956;28;20084;-70
2021/07/17 02:24:16;;;;;;;1.20;0.63;;;23.10;56.40;;;;;;5121375;28;20054;-70
2021/07/17 02:26:45;;;;;;;0.75;0.60;;;23.10;56.70;;;;;;5120963;28;20024;-70
2021/07/17 02:29:12;;;;;;;0.75;0.60;;;23.00;56.60;;;;;;5120965;28;20065;-70
2021/07/17 02:31:37;;;;;;;1.20;0.68;;;23.00;56.80;;;;;;5121250;28;20032;-70
2021/07/17 02:34:06;;;;;;;1.70;0.50;;;23.00;56.70;;;;;;5120815;28;20555;-70
2021/07/17 02:36:32;;;;;;;0.90;0.60;;;23.00;57.10;;;;;;5120715;28;20411;-70
2021/07/17 02:38:58;;;;;;;3.28;0.60;;;22.90;57.20;;;;;;5120708;28;20067;-70
2021/07/17 02:41:24;;;;;;;1.85;0.88;;;22.90;57.00;;;;;;5121042;28;20023;-70
2021/07/17 02:43:50;;;;;;;1.13;0.50;;;23.00;56.10;;;;;;5120930;28;20298;-70
2021/07/17 02:46:16;;;;;;;2.25;0.60;;;23.00;59.20;;;;;;5120943;28;20080;-70
2021/07/17 02:48:42;;;;;;;1.27;0.68;;;23.00;56.40;;;;;;5120904;28;20346;-70
2021/07/17 02:51:08;;;;;;;3.72;0.70;;;22.90;57.00;;;;;;5120527;28;20323;-70
2021/07/17 02:53:34;;;;;;;1.40;0.70;;;22.90;56.50;;;;;;5120789;28;20024;-70
2021/07/17 02:55:59;;;;;;;1.98;0.60;;;22.80;57.40;;;;;;5120625;28;20093;-70
2021/07/17 02:58:25;;;;;;;2.63;1.50;;;22.90;56.40;;;;;;5120703;28;20076;-70
2021/07/17 03:00:54;;;;;;;1.35;0.60;;;23.10;55.20;;;;;;5120679;28;20399;-70
2021/07/17 03:03:21;;;;;;;1.38;0.60;;;23.10;56.50;;;;;;5120617;28;20023;-70
2021/07/17 03:05:47;;;;;;;2.03;0.70;;;23.20;55.60;;;;;;5120194;28;20036;-70
2021/07/17 03:08:15;;;;;;;1.05;0.60;;;23.20;55.10;;;;;;5120252;28;20023;-70
2021/07/17 03:10:42;;;;;;;1.50;0.70;;;23.10;55.60;;;;;;5120427;28;20059;-70
2021/07/17 03:13:08;;;;;;;1.45;0.55;;;23.00;56.20;;;;;;5120376;28;20035;-70
2021/07/17 03:15:34;;;;;;;1.92;0.80;;;22.90;55.50;;;;;;5119964;28;20423;-70
2021/07/17 03:18:00;;;;;;;1.73;0.82;;;22.90;56.60;;;;;;5120022;28;20023;-70
2021/07/17 03:20:26;;;;;;;0.77;0.57;;;22.90;56.90;;;;;;5120278;28;20027;-70
2021/07/17 03:22:52;;;;;;;2.25;0.60;;;22.80;56.00;;;;;;5120228;28;20043;-70
2021/07/17 03:25:17;;;;;;;2.75;0.52;;;22.80;56.90;;;;;;5119802;28;20034;-70
2021/07/17 03:27:43;;;;;;;1.08;0.60;;;22.70;57.20;;;;;;5119863;28;20028;-70
2021/07/17 03:30:09;;;;;;;2.47;0.60;;;22.70;55.90;;;;;;5119797;28;20032;-70
2021/07/17 03:32:35;;;;;;;2.00;0.60;;;22.60;57.20;;;;;;5118782;28;20485;-70
2021/07/17 03:35:01;;;;;;;0.82;0.50;;;22.70;56.40;;;;;;5119951;28;20024;-70
2021/07/17 03:37:27;;;;;;;0.93;0.50;;;22.90;55.80;;;;;;5119863;28;20019;-70
2021/07/17 03:39:52;;;;;;;1.63;0.75;;;22.90;57.30;;;;;;5119431;28;20070;-70
2021/07/17 03:42:18;;;;;;;0.70;0.50;;;22.90;55.90;;;;;;5119867;28;20063;-70
2021/07/17 03:44:44;;;;;;;1.23;0.50;;;23.00;55.20;;;;;;5119439;28;20027;-70
2021/07/17 03:47:10;;;;;;;0.98;0.70;;;23.00;54.80;;;;;;5119402;28;20032;-70
2021/07/17 03:49:35;;;;;;;1.38;0.80;;;23.00;55.90;;;;;;5119714;28;20048;-70
2021/07/17 03:52:02;;;;;;;1.13;0.50;;;23.00;55.50;;;;;;5119365;28;20404;-70
2021/07/17 03:54:27;;;;;;;1.40;0.40;;;23.00;54.60;;;;;;5119282;28;20420;-70
2021/07/17 03:56:53;;;;;;;0.90;0.40;;;23.10;54.80;;;;;;5119491;28;20072;-70
2021/07/17 03:59:19;;;;;;;0.70;0.50;;;23.10;54.80;;;;;;5119214;28;20027;-70
2021/07/17 04:01:44;;;;;;;0.60;0.50;;;23.10;54.30;;;;;;5119505;28;20031;-70
2021/07/17 04:04:12;;;;;;;0.68;0.50;;;23.20;54.30;;;;;;5119411;28;20024;-70
2021/07/17 04:06:38;;;;;;;1.98;0.65;;;23.30;54.30;;;;;;5119063;28;20024;-70
2021/07/17 04:09:04;;;;;;;8.80;1.23;;;23.40;53.60;;;;;;5119046;28;20035;-70
2021/07/17 04:11:30;;;;;;;2.65;0.40;;;23.50;53.90;;;;;;5118988;28;20028;-70
2021/07/17 04:13:56;;;;;;;2.88;0.40;;;23.50;53.60;;;;;;5118986;28;20024;-70
2021/07/17 04:16:22;;;;;;;0.50;0.40;;;23.70;53.20;;;;;;5118858;28;20032;-70
2021/07/17 04:18:47;;;;;;;1.23;0.40;;;23.70;52.90;;;;;;5118854;28;20034;-70
2021/07/17 04:21:13;;;;;;;1.02;0.47;;;23.70;53.80;;;;;;5119128;28;20040;-70
2021/07/17 04:23:40;;;;;;;1.63;0.50;;;23.70;52.50;;;;;;5119073;28;20120;-70
2021/07/17 04:26:06;;;;;;;1.25;0.50;;;23.70;53.70;;;;;;5119011;28;20024;-70
2021/07/17 04:28:32;;;;;;;0.88;0.50;;;23.70;53.30;;;;;;5118635;28;20327;-70
2021/07/17 04:30:58;;;;;;;1.13;0.60;;;23.60;54.30;;;;;;5118630;28;20034;-70
2021/07/17 04:33:23;;;;;;;1.60;0.50;;;23.50;56.40;;;;;;5118840;28;20032;-70
2021/07/17 04:35:49;;;;;;;1.10;0.60;;;23.40;56.40;;;;;;5118399;28;20066;-69
2021/07/17 04:38:15;;;;;;;0.50;0.40;;;23.30;56.90;;;;;;5118517;28;20043;-70
2021/07/17 04:40:40;;;;;;;0.88;0.50;;;23.10;58.40;;;;;;5118766;28;20303;-71
2021/07/17 04:43:06;;;;;;;1.77;0.57;;;22.90;59.60;;;;;;5118467;28;20036;-70
2021/07/17 04:45:33;;;;;;;4.90;0.70;;;22.80;57.60;;;;;;5118306;28;20116;-70
2021/07/17 04:48:03;;;;;;;1.33;0.60;;;22.70;59.70;;;;;;5118622;28;20047;-70
2021/07/17 04:50:31;;;;;;;1.20;0.50;;;22.70;59.50;;;;;;5118530;28;20027;-69
2021/07/17 04:52:58;;;;;;;1.08;0.50;;;22.50;61.80;;;;;;5118455;28;20058;-69
2021/07/17 04:55:24;;;;;;;0.50;0.40;;;22.50;59.50;;;;;;5118039;28;20427;-69
2021/07/17 04:57:49;;;;;;;1.95;0.50;;;22.50;60.50;;;;;;5118405;28;20024;-69
2021/07/17 05:00:16;;;;;;;1.15;0.50;;;22.50;58.30;;;;;;5118355;28;20310;-70
2021/07/17 05:02:50;;;;;;;4.50;0.60;;;22.70;58.10;;;;;;5118275;28;20070;-69
2021/07/17 05:05:17;;;;;;;2.17;0.40;;;22.70;59.60;;;;;;5118185;28;20080;-71
2021/07/17 05:07:47;;;;;;;1.02;0.50;;;22.80;58.60;;;;;;5118179;28;20372;-69
2021/07/17 05:10:16;;;;;;;0.77;0.50;;;22.80;59.50;;;;;;5117812;28;20019;-70
2021/07/17 05:12:42;;;;;;;2.40;0.50;;;22.80;60.90;;;;;;5117727;28;20122;-69
2021/07/17 05:15:09;;;;;;;0.82;0.60;;;22.70;61.10;;;;;;5118025;28;20031;-70
2021/07/17 05:17:35;;;;;;;1.45;0.60;;;22.60;59.20;;;;;;5117975;28;20129;-70
2021/07/17 05:20:01;;;;;;;1.27;0.50;;;22.50;61.30;;;;;;5117674;28;20020;-71
2021/07/17 05:22:27;;;;;;;0.85;0.45;;;22.40;60.80;;;;;;5117620;28;20023;-70
2021/07/17 05:24:53;;;;;;;0.80;0.40;;;22.40;60.90;;;;;;5117558;28;20024;-70
2021/07/17 05:27:18;;;;;;;0.98;0.55;;;22.50;59.60;;;;;;5117510;28;20066;-70
2021/07/17 05:29:44;;;;;;;0.68;0.43;;;22.50;59.40;;;;;;5117821;28;20065;-70
2021/07/17 05:32:10;;;;;;;1.20;0.77;;;22.60;59.40;;;;;;5117515;28;20408;-71
2021/07/17 05:34:37;;;;;;;1.75;0.68;;;22.60;61.20;;;;;;5117722;28;20028;-70
2021/07/17 05:37:03;;;;;;;0.68;0.45;;;22.70;59.70;;;;;;5117660;28;20031;-70
2021/07/17 05:39:29;;;;;;;1.13;0.60;;;22.70;59.30;;;;;;5117219;28;20043;-70
2021/07/17 05:41:55;;;;;;;0.88;0.52;;;22.70;58.50;;;;;;5117602;28;20094;-70
2021/07/17 05:44:20;;;;;;;3.20;0.40;;;22.80;59.80;;;;;;5117645;28;20028;-70
2021/07/17 05:46:46;;;;;;;1.23;0.60;;;22.80;59.80;;;;;;5117254;28;20080;-70
2021/07/17 05:49:11;;;;;;;0.80;0.60;;;22.80;58.40;;;;;;5117517;28;20027;-70
2021/07/17 05:51:37;;;;;;;1.15;0.55;;;22.90;58.50;;;;;;5117530;28;20054;-70
2021/07/17 05:54:03;;;;;;;2.25;0.30;;;22.90;58.90;;;;;;5117478;28;20399;-70
2021/07/17 05:56:28;;;;;;;3.67;0.50;;;22.90;58.60;;;;;;5116923;28;20480;-70
2021/07/17 05:58:54;;;;;;;3.22;0.50;;;22.90;59.20;;;;;;5117475;28;20313;-70
2021/07/17 06:01:19;;;;;;;2.25;0.45;;;22.90;59.50;;;;;;5117429;28;20455;-70
2021/07/17 06:03:46;;;;;;;1.63;0.50;;;22.90;60.70;;;;;;5117408;28;20031;-70
2021/07/17 06:06:12;;;;;;;1.73;0.50;;;22.90;59.60;;;;;;5117394;28;20031;-70
2021/07/17 06:08:38;;;;;;;0.98;0.50;;;22.80;60.20;;;;;;5117072;28;20357;-70
2021/07/17 06:11:04;;;;;;;0.95;0.40;;;22.80;60.60;;;;;;5117363;28;20024;-70
2021/07/17 06:13:30;;;;;;;0.95;0.50;;;22.80;61.10;;;;;;5117178;28;20434;-70
2021/07/17 06:15:55;;;;;;;1.10;0.60;;;22.70;60.10;;;;;;5117208;28;20024;-70
2021/07/17 06:18:21;;;;;;;1.45;0.60;;;22.70;58.30;;;;;;5117289;28;20400;-70
2021/07/17 06:20:47;;;;;;;1.20;0.60;;;22.90;61.50;;;;;;5117292;28;20484;-70
2021/07/17 06:23:12;;;;;;;0.73;0.60;;;22.80;61.70;;;;;;5117244;28;20312;-70
2021/07/17 06:25:38;;;;;;;1.85;0.70;;;22.80;63.10;;;;;;5117143;28;20051;-70
2021/07/17 06:28:04;;;;;;;1.95;0.70;;;22.70;60.80;;;;;;5117208;28;20023;-70
2021/07/17 06:30:30;;;;;;;1.58;0.73;;;22.70;59.60;;;;;;5117138;28;20042;-70
2021/07/17 06:32:55;;;;;;;0.90;0.60;;;22.80;59.50;;;;;;5116831;28;20316;-70
2021/07/17 06:35:21;;;;;;;1.90;0.80;;;22.80;59.10;;;;;;5117000;28;20035;-70
2021/07/17 06:37:47;;;;;;;0.80;0.60;;;22.90;59.60;;;;;;5116912;28;20028;-71
2021/07/17 06:40:15;;;;;;;0.73;0.55;;;22.90;59.50;;;;;;5117043;28;20024;-70
2021/07/17 06:42:49;;;;;;;0.80;0.40;;;22.90;61.60;;;;;;5116682;28;20032;-70
2021/07/17 06:45:17;;;;;;;0.75;0.40;;;22.90;60.90;;;;;;5116596;28;20424;-70
2021/07/17 06:47:43;;;;;;;0.57;0.45;;;22.90;61.40;;;;;;5116699;28;20473;-70
2021/07/17 06:50:10;;;;;;;0.82;0.50;;;22.90;60.30;;;;;;5116943;28;20020;-70
2021/07/17 06:52:35;;;;;;;1.70;0.50;;;22.90;62.50;;;;;;5116655;28;20031;-70
2021/07/17 06:55:04;;;;;;;1.20;0.65;;;23.00;63.40;;;;;;5116570;28;20031;-70
2021/07/17 06:57:30;;;;;;;0.60;0.40;;;22.90;65.20;;;;;;5116877;28;20042;-70
2021/07/17 06:59:56;;;;;;;1.13;0.40;;;22.90;62.80;;;;;;5116606;28;20140;-70
2021/07/17 07:02:22;;;;;;;0.80;0.60;;;22.90;67.30;;;;;;5116874;28;20020;-70
2021/07/17 07:04:48;;;;;;;0.60;0.40;;;22.80;65.30;;;;;;5117103;28;20023;-70
2021/07/17 07:07:13;;;;;;;1.27;0.50;;;22.80;65.60;;;;;;5117601;28;20042;-70
2021/07/17 07:09:39;;;;;;;0.93;0.50;;;22.80;63.30;;;;;;5120253;28;20051;-70
2021/07/17 07:12:05;;;;;;;1.10;0.55;;;22.80;64.10;;;;;;5120179;28;20073;-70
2021/07/17 07:14:31;;;;;;;0.38;0.30;;;22.80;65.70;;;;;;5120515;28;20028;-70
2021/07/17 07:16:56;;;;;;;1.00;0.50;;;22.80;64.90;;;;;;5120292;28;20032;-70
2021/07/17 07:19:22;;;;;;;0.60;0.47;;;22.80;63.20;;;;;;5120038;28;20023;-70
2021/07/17 07:21:49;;;;;;;0.85;0.50;;;22.80;64.80;;;;;;5119967;28;20020;-70
2021/07/17 07:24:15;;;;;;;0.85;0.60;;;22.90;63.30;;;;;;5120231;28;20031;-70
2021/07/17 07:26:41;;;;;;;0.50;0.40;;;22.80;66.30;;;;;;5119850;28;20031;-70
2021/07/17 07:29:07;;;;;;;0.82;0.60;;;22.70;65.00;;;;;;5120166;28;20028;-70
2021/07/17 07:31:33;;;;;;;1.45;0.57;;;22.60;64.40;;;;;;5120092;28;20026;-70
2021/07/17 07:33:58;;;;;;;1.10;0.60;;;22.50;63.50;;;;;;5120020;28;20023;-70
2021/07/17 07:36:24;;;;;;;0.93;0.52;;;22.50;65.10;;;;;;5119923;28;20412;-70
2021/07/17 07:38:50;;;;;;;0.63;0.45;;;22.70;62.30;;;;;;5119666;28;20469;-70
2021/07/17 07:41:16;;;;;;;0.47;0.40;;;22.90;59.70;;;;;;5119608;28;20285;-70
2021/07/17 07:43:45;;;;;;;1.58;0.40;;;23.20;60.10;;;;;;5119463;28;20032;-70
2021/07/17 07:46:11;;;;;;;0.80;0.50;;;23.50;60.40;;;;;;5119492;28;20088;-70
2021/07/17 07:48:37;;;;;;;0.85;0.52;;;23.80;61.20;;;;;;5119773;28;20054;-70
2021/07/17 07:51:03;;;;;;;0.70;0.50;;;23.80;60.90;;;;;;5119428;28;20489;-70
2021/07/17 07:53:28;;;;;;;0.68;0.43;;;23.80;60.30;;;;;;5119644;28;20357;-70
2021/07/17 07:55:54;;;;;;;1.65;0.57;;;23.90;63.10;;;;;;5111096;28;20039;-70
2021/07/17 07:58:20;;;;;;;1.45;0.57;;;23.80;64.10;;;;;;5119620;28;20310;-70
2021/07/17 08:00:45;;;;;;;0.88;0.45;;;23.70;65.10;;;;;;5119589;28;20020;-70
2021/07/17 08:03:11;;;;;;;0.85;0.60;;;23.60;66.00;;;;;;5119543;28;20399;-70
2021/07/17 08:05:37;;;;;;;1.77;0.60;;;23.50;62.90;;;;;;5119428;28;20472;-70
2021/07/17 08:08:03;;;;;;;1.08;0.50;;;23.40;68.10;;;;;;5119132;28;20023;-70
2021/07/17 08:10:29;;;;;;;0.70;0.50;;;23.40;69.80;;;;;;5119017;28;20031;-70
2021/07/17 08:12:54;;;;;;;2.13;0.57;;;23.30;67.30;;;;;;5119231;28;20059;-70
2021/07/17 08:15:20;;;;;;;1.17;0.55;;;23.20;65.00;;;;;;5119151;28;20087;-71
2021/07/17 08:17:46;;;;;;;1.33;0.60;;;23.30;66.50;;;;;;5118839;28;20053;-70
2021/07/17 08:20:12;;;;;;;0.63;0.50;;;23.40;67.00;;;;;;5119189;28;20023;-70
2021/07/17 08:22:40;;;;;;;0.75;0.40;;;23.50;67.80;;;;;;5119083;28;20028;-70
2021/07/17 08:25:07;;;;;;;0.82;0.50;;;23.60;66.60;;;;;;5119114;28;20076;-70
2021/07/17 08:27:34;;;;;;;1.05;0.47;;;23.70;61.10;;;;;;5118633;28;20024;-70
2021/07/17 08:29:59;;;;;;;0.55;0.50;;;23.80;64.40;;;;;;5118981;28;20315;-70
2021/07/17 08:32:26;;;;;;;0.80;0.60;;;23.80;61.00;;;;;;5118631;28;20038;-70
2021/07/17 08:34:52;;;;;;;2.90;0.63;;;24.00;59.50;;;;;;5118433;28;20015;-70
2021/07/17 08:37:19;;;;;;;1.23;0.43;;;24.00;61.90;;;;;;5118461;28;20430;-70
2021/07/17 08:39:45;;;;;;;1.70;0.60;;;24.10;59.40;;;;;;5118385;28;20055;-70
2021/07/17 08:42:15;;;;;;;1.20;0.70;;;24.00;61.10;;;;;;5118763;28;20036;-70
2021/07/17 08:44:42;;;;;;;1.10;0.60;;;23.90;59.10;;;;;;5118805;28;20051;-70
2021/07/17 08:47:09;;;;;;;1.30;0.75;;;23.80;62.40;;;;;;5118287;28;20042;-70
2021/07/17 08:49:37;;;;;;;1.70;0.60;;;23.70;60.20;;;;;;5118240;28;20080;-70
2021/07/17 08:52:03;;;;;;;0.90;0.50;;;23.70;60.90;;;;;;5118467;28;20027;-70
2021/07/17 08:54:30;;;;;;;1.00;0.50;;;23.70;60.90;;;;;;5118464;28;20039;-70
2021/07/17 08:56:56;;;;;;;1.70;0.60;;;23.70;62.00;;;;;;5118317;28;20020;-70
2021/07/17 08:59:22;;;;;;;1.10;0.70;;;23.80;66.70;;;;;;5118088;28;20404;-71
2021/07/17 09:01:49;;;;;;;0.80;0.63;;;23.80;70.20;;;;;;5118341;28;20044;-70
2021/07/17 09:04:15;;;;;;;0.65;0.50;;;23.80;70.00;;;;;;5118306;28;20068;-70
2021/07/17 09:06:41;;;;;;;1.33;0.60;;;23.70;64.70;;;;;;5117960;28;20039;-70
2021/07/17 09:09:07;;;;;;;2.10;0.60;;;23.80;62.10;;;;;;5118133;28;20028;-70
2021/07/17 09:11:40;;;;;;;0.70;0.50;;;23.80;65.80;;;;;;5118180;28;20059;-70
2021/07/17 09:14:07;;;;;;;2.58;0.60;;;23.90;68.70;;;;;;5117854;28;20035;-70
2021/07/17 09:16:36;;;;;;;0.73;0.55;;;24.00;71.70;;;;;;5118008;28;20297;-70
2021/07/17 09:19:03;;;;;;;1.42;0.60;;;24.00;70.10;;;;;;5118042;28;20116;-70
2021/07/17 09:21:31;;;;;;;1.42;0.70;;;24.10;70.00;;;;;;5117650;28;20054;-70
2021/07/17 09:23:59;;;;;;;2.10;0.90;;;24.10;67.60;;;;;;5117946;28;20044;-70
2021/07/17 09:26:31;;;;;;;1.08;0.98;;;24.20;67.00;;;;;;5117607;28;20036;-70
2021/07/17 09:29:03;;;;;;;0.80;0.60;;;24.50;67.90;;;;;;5117400;28;20063;-70
2021/07/17 09:31:34;;;;;;;1.02;0.47;;;24.70;66.30;;;;;;5117459;28;20106;-70
2021/07/17 09:34:04;;;;;;;0.70;0.52;;;25.10;64.50;;;;;;5117811;28;20032;-70
2021/07/17 09:36:30;;;;;;;0.70;0.50;;;25.40;65.70;;;;;;5117358;28;20035;-70
2021/07/17 09:38:55;;;;;;;1.52;0.70;;;25.70;65.20;;;;;;5117227;28;20175;-70
2021/07/17 09:41:21;;;;;;;0.82;0.60;;;25.80;67.70;;;;;;5117366;28;20106;-70
2021/07/17 09:43:59;;;;;;;5.47;0.52;;;25.70;65.30;;;;;;5117724;28;20063;-70
2021/07/17 09:46:27;;;;;;;2.92;0.93;;;25.50;68.10;;;;;;5117630;28;20107;-69
2021/07/17 09:48:54;;;;;;;0.93;0.60;;;25.20;68.10;;;;;;5117602;28;20035;-70
2021/07/17 09:51:25;;;;;;;1.13;0.70;;;25.00;62.10;;;;;;5117572;28;20019;-70
2021/07/17 09:53:52;;;;;;;1.58;0.50;;;25.00;61.90;;;;;;5117215;28;20110;-70
2021/07/17 09:56:20;;;;;;;5.10;0.73;;;24.90;70.00;;;;;;5117081;28;20028;-70
2021/07/17 09:58:46;;;;;;;1.02;0.70;;;24.80;66.40;;;;;;5117481;28;20039;-70
2021/07/17 10:01:17;;;;;;;0.90;0.60;;;24.70;67.30;;;;;;5117120;28;20514;-70
2021/07/17 10:03:43;;;;;;;1.60;0.60;;;24.50;65.40;;;;;;5117157;28;20047;-69
2021/07/17 10:06:10;;;;;;;0.82;0.60;;;24.40;68.60;;;;;;5117059;28;20477;-69
2021/07/17 10:08:36;;;;;;;1.52;0.70;;;24.30;70.50;;;;;;5117087;28;20411;-70
2021/07/17 10:11:11;;;;;;;1.73;0.80;;;24.20;70.30;;;;;;5117374;28;20316;-71
2021/07/17 10:13:39;;;;;;;1.58;0.82;;;24.20;71.20;;;;;;5117275;28;20032;-69
2021/07/17 10:16:39;;;;;;;1.92;1.20;;;24.10;76.20;;;;;;5116923;28;20035;-71
2021/07/17 10:19:05;;;;;;;2.15;1.45;;;23.90;78.00;;;;;;5096631;28;20032;-71
2021/07/17 10:21:31;;;;;;;2.83;1.75;;;23.80;77.80;;;;;;5105527;28;20042;-71
2021/07/17 10:23:57;;;;;;;2.20;1.67;;;23.70;78.90;;;;;;5096482;28;20040;-71
2021/07/17 10:26:23;;;;;;;4.43;1.70;;;23.60;80.00;;;;;;5096824;28;20023;-71
2021/07/17 10:28:48;;;;;;;4.60;1.50;;;23.60;78.70;;;;;;5096506;28;20083;-71
2021/07/17 10:31:14;;;;;;;3.17;1.55;;;23.40;79.10;;;;;;5096807;28;20100;-71
2021/07/17 10:33:40;;;;;;;3.55;1.70;;;23.00;79.50;;;;;;5096459;28;20028;-71
2021/07/17 10:36:15;;;;;;;5.47;2.53;;;22.50;81.90;;;;;;5096597;28;20025;-71
2021/07/17 10:38:43;;;;;;;7.40;2.30;;;22.20;82.00;;;;;;5096283;28;20501;-71
2021/07/17 10:41:14;;;;;;;6.53;2.92;;;22.10;82.20;;;;;;5097782;28;20042;-71
2021/07/17 10:43:41;;;;;;;7.80;2.88;;;21.90;82.80;;;;;;5100376;28;20111;-71
2021/07/17 10:46:28;;;;;;;6.30;2.60;;;21.70;84.70;;;;;;5100562;28;20397;-71
2021/07/17 10:48:55;;;;;;;3.03;2.22;;;21.80;84.60;;;;;;5100579;28;20373;-71
2021/07/17 10:51:23;;;;;;;7.35;2.58;;;22.20;85.50;;;;;;5100169;28;20085;-71
2021/07/17 10:53:54;;;;;;;3.80;1.92;;;22.50;84.60;;;;;;5100395;28;20067;-71
2021/07/17 10:56:30;;;;;;;10.13;2.65;;;22.90;85.50;;;;;;5099998;28;20424;-71
2021/07/17 10:58:55;;;;;;;;;;;23.20;83.60;;;;;;5100748;28;20039;-71
2021/07/17 11:01:21;;;;;;;;;;;23.40;82.10;;;;;;5100438;28;20215;-71
2021/07/17 11:03:47;;;;;;;6.20;3.55;;;23.40;81.10;;;;;;5100228;28;19904;-71
2021/07/17 11:06:28;;;;;;;3.75;1.85;;;23.40;82.00;;;;;;5100186;28;20320;-71
2021/07/17 11:08:55;;;;;;;6.10;2.15;;;23.70;82.60;;;;;;5100148;28;20056;-71
2021/07/17 11:11:37;;;;;;;2.75;1.60;;;24.00;83.30;;;;;;5100138;28;20031;-69
2021/07/17 11:14:05;;;;;;;4.00;2.28;;;24.20;83.50;;;;;;5100432;28;20044;-71
2021/07/17 11:16:51;;;;;;;4.05;2.05;;;24.20;80.90;;;;;;5099591;28;20040;-71
2021/07/17 11:19:28;;;;;;;4.22;2.22;;;24.10;81.50;;;;;;5099886;28;20031;-71
2021/07/17 11:22:14;;;;;;;2.25;1.90;;;23.80;81.70;;;;;;5091497;28;20304;-71
2021/07/17 11:24:40;;;;;;;;;;;23.80;84.10;;;;;;5100316;28;20022;-71
2021/07/17 11:27:14;;;;;;;2.92;1.80;;;23.80;85.00;;;;;;5099785;28;19904;-71
2021/07/17 11:29:45;;;;;;;1.30;1.17;;;24.00;86.00;;;;;;5099357;28;20028;-71
2021/07/17 11:32:12;;;;;;;2.15;1.20;;;24.10;83.80;;;;;;5099406;28;20032;-71
2021/07/17 11:34:43;;;;;;;3.83;1.15;;;24.20;83.30;;;;;;5099164;28;20059;-71
2021/07/17 11:37:11;;;;;;;1.88;0.80;;;24.40;82.70;;;;;;5099213;28;20070;-71
2021/07/17 11:39:40;;;;;;;2.78;0.80;;;24.70;81.10;;;;;;5099140;28;20047;-71
2021/07/17 11:42:08;;;;;;;2.13;1.20;;;24.80;78.60;;;;;;5099537;28;20058;-71
2021/07/17 11:44:43;;;;;;;2.75;1.73;;;25.00;82.00;;;;;;5099566;28;20016;-71
2021/07/17 11:47:11;;;;;;;4.47;1.60;;;25.10;82.80;;;;;;5099424;28;20039;-71
2021/07/17 11:49:45;;;;;;;3.90;1.60;;;25.00;82.00;;;;;;5099312;28;20024;-71
2021/07/17 11:52:16;;;;;;;2.67;1.30;;;25.00;81.70;;;;;;5098759;28;20032;-71
2021/07/17 11:54:44;;;;;;;1.77;1.00;;;24.90;81.40;;;;;;5098710;28;20058;-71
2021/07/17 11:57:16;;;;;;;2.03;1.13;;;24.90;79.60;;;;;;5099142;28;20016;-71
2021/07/17 11:59:45;;;;;;;2.42;1.67;;;24.70;78.10;;;;;;5099192;28;20021;-71
2021/07/17 12:02:16;;;;;;;1.20;0.80;;;24.50;75.70;;;;;;5099136;28;20036;-71
2021/07/17 12:04:49;;;;;;;1.23;0.60;;;24.40;70.90;;;;;;5099069;28;20028;-71
2021/07/17 12:07:20;;;;;;;1.35;0.65;;;24.20;73.60;;;;;;5098729;28;20020;-71
2021/07/17 12:10:06;;;;;;;1.05;0.70;;;23.90;71.70;;;;;;5099025;28;20106;-71
2021/07/17 12:12:44;;;;;;;1.63;0.90;;;23.70;68.20;;;;;;5088024;28;20028;-71
2021/07/17 12:15:25;;;;;;;0.90;0.60;;;23.70;70.60;;;;;;5098807;28;20050;-71
2021/07/17 12:17:54;;;;;;;1.48;0.98;;;23.80;71.90;;;;;;5098832;28;20031;-71
2021/07/17 12:20:26;;;;;;;1.67;1.00;;;24.00;70.40;;;;;;5098460;28;20090;-71
2021/07/17 12:22:58;;;;;;;1.83;0.90;;;24.00;72.10;;;;;;5098768;28;20081;-71
2021/07/17 12:25:26;;;;;;;2.45;0.93;;;24.00;74.80;;;;;;5098642;28;20107;-71
2021/07/17 12:28:00;;;;;;;1.90;0.90;;;24.00;74.40;;;;;;5098645;28;20031;-71
2021/07/17 12:30:32;;;;;;;2.17;1.02;;;23.90;77.40;;;;;;5098589;28;20352;-71
2021/07/17 12:33:13;;;;;;;0.98;0.85;;;23.80;80.30;;;;;;5098511;28;20035;-71
2021/07/17 12:35:39;;;;;;;0.93;0.77;;;23.70;78.60;;;;;;5098030;28;20025;-71
2021/07/17 12:38:25;;;;;;;2.00;0.80;;;23.60;79.90;;;;;;5097908;28;20044;-71
2021/07/17 12:40:55;;;;;;;1.33;1.00;;;23.60;82.20;;;;;;5098400;28;20020;-71
2021/07/17 12:43:48;;;;;;;0.88;0.80;;;23.50;78.50;;;;;;5098198;28;20084;-71
2021/07/17 12:46:44;;;;;;;1.05;0.70;;;23.30;75.10;;;;;;5097965;28;20028;-71
2021/07/17 12:49:18;;;;;;;1.60;0.75;;;23.30;72.00;;;;;;5097954;28;20029;-71
2021/07/17 12:51:49;;;;;;;1.17;0.70;;;23.30;72.70;;;;;;5097929;28;20058;-71